Time;durP1;ratioP1;P1;durP2;ratioP2;P2;SDS_P1;SDS_P2;PMS_P1;PMS_P2;Temp;Humidity;BMP_temperature;BMP_pressure;BME280_temperature;BME280_humidity;BME280_pressure;Samples;Min_cycle;Max_cycle;Signal;HPM_P1;HPM_P2
2021/12/04 08:45:17;;;;;;;6.93;2.45;;;6.60;99.90;;;;;;5137590;27;20171;-80
2021/12/04 08:47:43;;;;;;;4.32;2.15;;;6.60;99.90;;;;;;5101655;28;20036;-80
2021/12/04 08:50:13;;;;;;;3.28;1.75;;;6.70;99.90;;;;;;5086279;28;20119;-80
2021/12/04 08:52:39;;;;;;;3.63;2.10;;;6.70;99.90;;;;;;5085445;28;20024;-83
2021/12/04 08:55:06;;;;;;;4.25;2.10;;;6.70;99.90;;;;;;5088795;28;20035;-84
2021/12/04 08:57:32;;;;;;;4.40;2.30;;;6.70;99.90;;;;;;5081907;28;20111;-84
2021/12/04 09:00:01;;;;;;;4.53;2.80;;;6.70;99.90;;;;;;5086823;28;20104;-81
2021/12/04 09:02:26;;;;;;;3.83;2.33;;;6.70;99.90;;;;;;5106018;28;20023;-84
2021/12/04 09:04:54;;;;;;;5.38;2.40;;;6.90;99.90;;;;;;5101093;28;20028;-80
2021/12/04 09:07:21;;;;;;;3.17;2.13;;;6.80;99.90;;;;;;5085356;28;20016;-83
2021/12/04 09:09:47;;;;;;;5.38;2.45;;;6.80;99.90;;;;;;5082531;28;20123;-81
2021/12/04 09:12:14;;;;;;;4.18;2.50;;;6.80;99.90;;;;;;5082387;28;20115;-85
2021/12/04 09:14:44;;;;;;;3.88;2.70;;;6.90;99.90;;;;;;5084511;28;20024;-81
2021/12/04 09:17:12;;;;;;;5.35;3.03;;;6.90;99.90;;;;;;5085000;28;20452;-79
2021/12/04 09:19:38;;;;;;;3.42;2.28;;;7.00;99.90;;;;;;5089512;28;20056;-82
2021/12/04 09:22:06;;;;;;;3.83;2.20;;;6.90;99.90;;;;;;5089517;28;20030;-84
2021/12/04 09:24:40;;;;;;;5.03;3.33;;;7.00;99.90;;;;;;5087571;28;20078;-82
2021/12/04 10:15:41;;;;;;;6.60;3.10;;;7.70;99.90;;;;;;5086451;28;20118;-81
2021/12/04 10:34:12;;;;;;;1.50;1.00;;;8.40;99.90;;;;;;5090671;28;20039;-83
2021/12/04 10:36:40;;;;;;;1.55;0.90;;;8.40;99.90;;;;;;5070700;28;20028;-83
2021/12/04 10:39:09;;;;;;;1.98;1.05;;;8.50;99.90;;;;;;5071148;28;20500;-82
2021/12/04 10:41:40;;;;;;;1.38;0.90;;;8.50;99.90;;;;;;5067106;28;20028;-84
2021/12/04 10:44:20;;;;;;;1.50;0.90;;;8.50;99.90;;;;;;5081860;28;20385;-85
2021/12/04 10:46:53;;;;;;;0.80;0.75;;;8.60;99.90;;;;;;5070820;28;20545;-86
2021/12/04 10:55:43;;;;;;;1.98;1.10;;;8.60;99.90;;;;;;5081007;28;20119;-86
2021/12/04 11:26:48;;;;;;;1.60;1.20;;;8.90;99.90;;;;;;5081837;28;20432;-83
2021/12/04 11:40:27;;;;;;;2.70;1.55;;;8.90;99.90;;;;;;5092061;28;20020;-84
2021/12/04 11:42:59;;;;;;;3.08;1.63;;;9.00;99.90;;;;;;5067566;28;20028;-86
2021/12/04 11:45:32;;;;;;;2.90;1.30;;;9.00;99.90;;;;;;5079221;28;20127;-85
2021/12/04 11:48:03;;;;;;;2.90;1.30;;;9.00;99.90;;;;;;5069049;28;20024;-85
2021/12/04 11:50:41;;;;;;;2.00;0.90;;;9.00;99.90;;;;;;5070239;28;20083;-84
2021/12/04 11:53:16;;;;;;;2.92;1.27;;;9.00;99.90;;;;;;5075855;28;20058;-83
2021/12/04 11:55:45;;;;;;;1.42;1.00;;;8.90;99.90;;;;;;5074773;28;20020;-82
2021/12/04 11:58:31;;;;;;;4.10;1.00;;;8.90;99.90;;;;;;5072717;28;20028;-83
2021/12/04 12:01:03;;;;;;;1.17;0.90;;;8.90;99.90;;;;;;5068514;28;20102;-85
2021/12/04 12:03:32;;;;;;;1.38;0.90;;;8.80;99.90;;;;;;5071105;28;20309;-79
2021/12/04 12:06:00;;;;;;;1.85;1.00;;;8.80;99.90;;;;;;5079936;28;20481;-84
2021/12/04 12:08:30;;;;;;;1.58;0.90;;;8.80;99.90;;;;;;5075911;28;20058;-82
2021/12/04 12:10:58;;;;;;;2.38;1.10;;;8.80;99.90;;;;;;5081275;28;20018;-83
2021/12/04 12:13:45;;;;;;;2.42;0.98;;;8.80;99.90;;;;;;5068457;28;20040;-82
2021/12/04 12:16:14;;;;;;;3.17;1.15;;;8.80;99.90;;;;;;5087821;28;20087;-80
2021/12/04 12:18:57;;;;;;;2.63;1.20;;;8.70;99.90;;;;;;5068036;28;20051;-77
2021/12/04 12:21:30;;;;;;;1.90;0.98;;;8.70;99.90;;;;;;5075013;28;20063;-82
2021/12/04 12:27:32;;;;;;;2.90;1.42;;;8.70;99.90;;;;;;5090390;28;20613;-81
2021/12/04 12:38:15;;;;;;;3.40;2.08;;;8.70;99.90;;;;;;5091252;28;20070;-83
2021/12/04 12:40:42;;;;;;;3.40;2.30;;;8.70;99.90;;;;;;5071027;28;20051;-83
2021/12/04 12:43:19;;;;;;;4.20;2.67;;;8.80;99.90;;;;;;5072096;28;20098;-84
2021/12/04 12:45:53;;;;;;;5.07;2.33;;;8.80;99.90;;;;;;5088163;28;20028;-83
2021/12/04 12:48:19;;;;;;;3.40;2.33;;;8.80;99.90;;;;;;5073716;28;20024;-85
2021/12/04 12:50:47;;;;;;;3.38;2.15;;;8.80;99.90;;;;;;5069975;28;20032;-84
2021/12/04 12:53:20;;;;;;;3.35;2.08;;;8.90;99.90;;;;;;5080146;28;20046;-84
2021/12/04 12:55:48;;;;;;;3.50;1.90;;;8.80;99.90;;;;;;5075150;28;20027;-84
2021/12/04 12:58:22;;;;;;;5.75;1.65;;;8.80;99.90;;;;;;5075077;28;20024;-84
2021/12/04 13:12:03;;;;;;;1.13;0.90;;;8.70;99.90;;;;;;5091065;28;20405;-79
2021/12/04 13:14:40;;;;;;;3.42;1.08;;;8.70;99.90;;;;;;5077419;28;20056;-83
2021/12/04 13:17:16;;;;;;;2.38;0.98;;;8.80;99.90;;;;;;5073156;28;20036;-87
2021/12/04 13:19:50;;;;;;;2.05;1.10;;;8.80;99.90;;;;;;5066592;28;20027;-82
2021/12/04 13:22:20;;;;;;;2.17;1.20;;;8.80;99.90;;;;;;5073461;28;20034;-84
2021/12/04 13:24:48;;;;;;;3.17;1.30;;;8.90;99.90;;;;;;5073036;28;20027;-84
2021/12/04 13:29:53;;;;;;;2.22;1.10;;;9.00;99.90;;;;;;5090844;28;20058;-87
2021/12/04 13:32:32;;;;;;;1.98;1.20;;;8.90;99.90;;;;;;5076247;28;20089;-82
2021/12/04 13:35:25;;;;;;;2.08;1.23;;;9.00;99.90;;;;;;5078993;28;20481;-82
2021/12/04 13:37:55;;;;;;;7.75;4.30;;;8.90;99.90;;;;;;5077898;28;20044;-79
2021/12/04 13:40:21;;;;;;;3.22;1.45;;;8.90;99.90;;;;;;5093392;28;20056;-85
2021/12/04 13:42:48;;;;;;;2.63;1.40;;;8.90;99.90;;;;;;5076924;28;20058;-84
2021/12/04 13:45:17;;;;;;;2.33;1.10;;;8.90;99.90;;;;;;5079981;28;20116;-80
2021/12/04 13:47:49;;;;;;;2.72;1.02;;;9.00;99.90;;;;;;5074774;28;20050;-85
2021/12/04 13:52:57;;;;;;;3.38;1.60;;;9.10;99.90;;;;;;5095266;28;20024;-81
2021/12/04 13:55:24;;;;;;;4.72;1.88;;;9.10;99.90;;;;;;5077407;28;20032;-83
2021/12/04 13:57:51;;;;;;;2.72;1.10;;;9.20;99.90;;;;;;5074203;28;20548;-83
2021/12/04 14:00:17;;;;;;;2.47;1.40;;;9.30;99.90;;;;;;5075210;28;20469;-85
2021/12/04 14:02:43;;;;;;;3.42;1.27;;;9.30;99.90;;;;;;5077208;28;20518;-85
2021/12/04 14:05:17;;;;;;;2.08;1.27;;;9.60;99.90;;;;;;5073632;28;20073;-82
2021/12/04 14:07:52;;;;;;;3.35;1.17;;;9.50;99.90;;;;;;5076463;28;20065;-85
2021/12/04 14:10:21;;;;;;;2.28;1.60;;;9.50;99.90;;;;;;5076349;28;20036;-84
2021/12/04 14:12:47;;;;;;;3.20;1.70;;;9.50;99.90;;;;;;5076972;28;20675;-87
2021/12/04 14:15:16;;;;;;;4.75;2.70;;;9.40;99.90;;;;;;5077383;28;20270;-86
2021/12/04 14:17:41;;;;;;;3.60;1.92;;;10.20;99.90;;;;;;5081075;28;20054;-89
2021/12/04 14:20:19;;;;;;;2.58;1.58;;;9.10;99.90;;;;;;5091548;28;20040;-86
2021/12/04 14:22:48;;;;;;;3.33;1.30;;;9.10;99.90;;;;;;5079020;28;20026;-84
2021/12/04 14:25:15;;;;;;;2.70;1.58;;;10.30;99.90;;;;;;5090760;28;20020;-81
2021/12/04 14:27:41;;;;;;;2.22;1.30;;;10.10;99.90;;;;;;5073663;28;20317;-85
2021/12/04 14:30:15;;;;;;;4.35;2.95;;;9.50;99.90;;;;;;5069712;28;20032;-85
2021/12/04 14:32:43;;;;;;;7.35;4.70;;;9.50;99.90;;;;;;5084570;28;20031;-83
2021/12/04 14:35:15;;;;;;;4.50;2.75;;;9.70;99.90;;;;;;5071555;28;20031;-85
2021/12/04 14:37:44;;;;;;;2.58;1.60;;;9.60;99.90;;;;;;5090107;28;20041;-82
2021/12/04 14:40:15;;;;;;;2.70;1.60;;;10.00;99.90;;;;;;5073682;28;20118;-86
2021/12/04 14:42:42;;;;;;;2.20;1.35;;;9.50;99.90;;;;;;5072769;28;20028;-84
2021/12/04 14:45:19;;;;;;;2.42;1.42;;;9.50;99.90;;;;;;5072363;28;20039;-81
2021/12/04 14:47:48;;;;;;;4.22;1.80;;;9.50;99.90;;;;;;5074418;28;20110;-81
2021/12/04 14:50:17;;;;;;;4.28;2.33;;;9.40;99.90;;;;;;5074740;28;20565;-85
2021/12/04 14:52:47;;;;;;;5.35;2.35;;;9.50;99.90;;;;;;5070216;28;20032;-83
2021/12/04 14:55:24;;;;;;;3.90;1.88;;;9.50;99.90;;;;;;5080865;28;20024;-86
2021/12/04 14:57:51;;;;;;;3.15;1.95;;;9.50;99.90;;;;;;5072949;28;20212;-87
2021/12/04 15:00:19;;;;;;;3.45;2.22;;;9.50;99.90;;;;;;5072090;28;20035;-85
2021/12/04 15:03:07;;;;;;;5.15;1.98;;;9.50;99.90;;;;;;5073956;28;20481;-82
2021/12/04 15:05:41;;;;;;;4.35;1.77;;;9.60;99.90;;;;;;5074518;28;20077;-83
2021/12/04 15:08:13;;;;;;;4.05;1.70;;;9.60;99.90;;;;;;5072817;28;20036;-84
2021/12/04 15:10:40;;;;;;;3.25;1.63;;;9.70;99.90;;;;;;5074454;28;20031;-84
2021/12/04 15:13:07;;;;;;;1.27;0.82;;;9.70;99.90;;;;;;5081287;28;20031;-85
2021/12/04 15:15:36;;;;;;;2.28;1.10;;;9.80;99.90;;;;;;5083884;28;20021;-85
2021/12/04 15:18:09;;;;;;;2.85;1.20;;;9.90;99.90;;;;;;5091589;28;20016;-84
2021/12/04 15:20:38;;;;;;;2.92;1.15;;;9.80;99.90;;;;;;5070456;28;20035;-82
2021/12/04 15:23:08;;;;;;;0.95;0.60;;;9.70;99.90;;;;;;5072526;28;20051;-83
2021/12/04 15:25:36;;;;;;;3.03;0.80;;;9.90;99.90;;;;;;5072205;28;20020;-83
2021/12/04 15:28:15;;;;;;;1.45;0.80;;;9.60;99.90;;;;;;5070764;28;20065;-83
2021/12/04 15:30:46;;;;;;;1.73;1.02;;;9.50;99.90;;;;;;5075559;28;20024;-84
2021/12/04 15:33:52;;;;;;;1.23;0.98;;;9.80;99.90;;;;;;5092808;28;20105;-84
2021/12/04 15:36:29;;;;;;;1.23;0.70;;;9.40;99.90;;;;;;5011281;28;20645;-84
2021/12/04 15:38:58;;;;;;;1.27;0.73;;;9.20;99.90;;;;;;5008588;28;20526;-84
2021/12/04 15:52:57;;;;;;;2.00;0.80;;;8.90;99.90;;;;;;5082053;28;19912;-81
2021/12/04 15:55:27;;;;;;;2.00;0.80;;;8.80;99.90;;;;;;5088605;28;20106;-81
2021/12/04 15:58:07;;;;;;;2.33;1.00;;;8.80;99.90;;;;;;5062680;28;20118;-82
2021/12/04 16:00:38;;;;;;;2.17;0.77;;;8.80;99.90;;;;;;5066783;28;20025;-84
2021/12/04 16:03:06;;;;;;;1.33;0.80;;;8.90;99.90;;;;;;5070997;28;20056;-82
2021/12/04 16:05:38;;;;;;;1.58;0.90;;;8.60;99.90;;;;;;5076433;28;20032;-84
2021/12/04 16:08:13;;;;;;;2.80;1.15;;;8.60;99.90;;;;;;5073930;28;20032;-85
2021/12/04 16:10:44;;;;;;;2.58;1.02;;;8.60;99.90;;;;;;5075325;28;20059;-83
2021/12/04 16:13:12;;;;;;;2.50;1.10;;;8.60;99.90;;;;;;5066488;28;20031;-83
2021/12/04 16:15:39;;;;;;;2.55;1.30;;;8.40;99.90;;;;;;5065288;28;20060;-88
2021/12/04 16:18:06;;;;;;;3.25;1.40;;;8.40;99.90;;;;;;5071759;28;20070;-82
2021/12/04 16:20:33;;;;;;;3.10;1.02;;;8.30;99.90;;;;;;5071421;28;20601;-85
2021/12/04 16:23:00;;;;;;;2.20;0.98;;;8.40;99.90;;;;;;5071909;28;20046;-85
2021/12/04 16:25:36;;;;;;;1.95;1.00;;;8.30;99.90;;;;;;5064664;28;20031;-86
2021/12/04 16:28:30;;;;;;;2.67;1.48;;;8.30;99.90;;;;;;5073357;28;20020;-85
2021/12/04 16:31:19;;;;;;;2.78;1.50;;;8.20;99.90;;;;;;5066799;28;20024;-87
2021/12/04 16:38:51;;;;;;;3.38;1.80;;;7.90;99.90;;;;;;5086585;28;20020;-83
2021/12/04 16:41:19;;;;;;;4.57;1.60;;;7.80;99.90;;;;;;5085304;28;20039;-89
2021/12/04 16:43:46;;;;;;;2.10;1.15;;;7.90;99.90;;;;;;5066902;28;20059;-86
2021/12/04 16:46:17;;;;;;;2.75;1.30;;;8.00;99.90;;;;;;5065505;28;20025;-88
2021/12/04 16:48:49;;;;;;;2.15;1.20;;;7.90;99.90;;;;;;5077766;28;20111;-84
2021/12/04 16:59:21;;;;;;;2.85;1.33;;;7.70;99.90;;;;;;5081044;28;21901;-84
2021/12/04 17:01:50;;;;;;;1.58;1.13;;;7.70;99.90;;;;;;5060830;28;20043;-82
2021/12/04 17:04:17;;;;;;;4.25;2.00;;;7.80;99.90;;;;;;5074998;28;20050;-84
2021/12/04 17:06:45;;;;;;;5.15;3.30;;;7.70;99.90;;;;;;5073004;28;20065;-84
2021/12/04 17:09:11;;;;;;;3.80;2.50;;;7.70;99.90;;;;;;5065970;28;20036;-85
2021/12/04 17:11:37;;;;;;;4.00;2.03;;;7.60;99.90;;;;;;5076265;28;20024;-83
2021/12/04 17:14:03;;;;;;;3.65;1.85;;;7.50;99.90;;;;;;5090936;28;20379;-87
2021/12/04 17:16:29;;;;;;;4.50;1.90;;;8.00;99.90;;;;;;5074462;28;20043;-87
2021/12/04 17:19:01;;;;;;;3.20;1.85;;;7.60;99.90;;;;;;5090731;28;20031;-83
2021/12/04 17:21:31;;;;;;;3.30;1.65;;;7.90;99.90;;;;;;5072323;28;20055;-86
2021/12/04 17:23:59;;;;;;;2.77;1.57;;;8.00;99.90;;;;;;5084375;28;20043;-83
2021/12/04 17:26:25;;;;;;;3.35;1.60;;;8.00;99.90;;;;;;5074927;28;20032;-86
2021/12/04 17:28:52;;;;;;;2.85;1.48;;;7.70;99.90;;;;;;5074102;28;20508;-87
2021/12/04 17:31:18;;;;;;;2.78;1.50;;;7.70;99.90;;;;;;5087266;28;20047;-84
2021/12/04 17:33:46;;;;;;;4.57;2.08;;;7.60;99.90;;;;;;5070951;28;20032;-82
2021/12/04 17:36:13;;;;;;;6.78;2.38;;;7.50;99.90;;;;;;5073622;28;20301;-85
2021/12/04 17:38:43;;;;;;;4.40;2.17;;;7.50;99.90;;;;;;5084220;28;20033;-85
2021/12/04 17:41:17;;;;;;;3.35;1.88;;;7.50;99.90;;;;;;5073785;28;20031;-83
2021/12/04 17:43:44;;;;;;;5.05;1.98;;;7.60;99.90;;;;;;5069502;28;20027;-85
2021/12/04 17:46:17;;;;;;;5.05;1.92;;;7.60;99.90;;;;;;5077207;28;20059;-84
2021/12/04 17:48:43;;;;;;;3.33;1.98;;;7.60;99.90;;;;;;5074958;28;20020;-87
2021/12/04 17:51:08;;;;;;;5.60;2.28;;;7.60;99.90;;;;;;5071993;28;20040;-88
2021/12/04 17:53:38;;;;;;;3.50;1.80;;;7.60;99.90;;;;;;5070900;28;20049;-87
2021/12/04 17:56:07;;;;;;;4.45;1.83;;;8.30;99.90;;;;;;5075671;28;20068;-84
2021/12/04 17:58:34;;;;;;;3.17;1.90;;;8.20;99.90;;;;;;5090749;28;20024;-82
2021/12/04 18:01:06;;;;;;;4.90;1.83;;;7.50;99.90;;;;;;5068702;28;20028;-86
2021/12/04 18:03:34;;;;;;;3.05;1.55;;;7.40;99.90;;;;;;5081405;28;20481;-83
2021/12/04 18:06:05;;;;;;;3.30;1.48;;;7.40;99.90;;;;;;5073126;28;20032;-85
2021/12/04 18:09:15;;;;;;;3.67;1.30;;;7.40;99.90;;;;;;5073278;28;20518;-84
2021/12/04 18:12:34;;;;;;;4.05;1.60;;;7.30;99.90;;;;;;4986996;28;20112;-85
2021/12/04 18:18:09;;;;;;;8.00;2.92;;;7.40;99.90;;;;;;4999255;28;20026;-83
2021/12/04 18:20:36;;;;;;;4.55;1.90;;;8.10;99.90;;;;;;4984742;28;20642;-87
2021/12/04 18:23:02;;;;;;;3.70;1.42;;;7.90;99.90;;;;;;5053461;28;20413;-84
2021/12/04 18:25:28;;;;;;;6.00;1.70;;;7.20;99.90;;;;;;5071200;28;20039;-84
2021/12/04 18:27:54;;;;;;;5.88;1.60;;;7.20;99.90;;;;;;5084412;28;20720;-82
2021/12/04 18:30:24;;;;;;;5.90;2.15;;;7.10;99.90;;;;;;5086172;28;20029;-82
2021/12/04 18:32:50;;;;;;;5.47;1.80;;;7.10;99.90;;;;;;5087223;28;20065;-83
2021/12/04 18:35:23;;;;;;;7.45;2.20;;;7.20;99.90;;;;;;5084321;28;20505;-81
2021/12/04 18:37:50;;;;;;;6.15;1.70;;;7.20;99.90;;;;;;5069947;28;20020;-82
2021/12/04 18:40:18;;;;;;;5.78;1.92;;;7.30;99.90;;;;;;5073935;28;20051;-78
2021/12/04 18:42:45;;;;;;;6.05;2.20;;;7.30;99.90;;;;;;5065588;28;20485;-83
2021/12/04 18:45:13;;;;;;;6.97;2.25;;;7.20;99.90;;;;;;5071904;28;20027;-84
2021/12/04 18:47:39;;;;;;;4.60;1.50;;;7.10;99.90;;;;;;5065850;28;20413;-84
2021/12/04 18:50:07;;;;;;;5.03;1.60;;;7.10;99.90;;;;;;5085586;28;20028;-85
2021/12/04 18:52:33;;;;;;;4.88;1.67;;;7.20;99.90;;;;;;5073246;28;20127;-86
2021/12/04 18:54:59;;;;;;;8.70;1.95;;;7.30;99.90;;;;;;5065600;28;20028;-84
2021/12/04 18:57:24;;;;;;;6.38;1.55;;;7.20;99.90;;;;;;5069801;28;20425;-85
2021/12/04 18:59:50;;;;;;;6.30;1.63;;;7.10;99.90;;;;;;5068857;28;20401;-85
2021/12/04 19:02:21;;;;;;;9.00;2.10;;;7.10;99.90;;;;;;5074160;28;20016;-84
2021/12/04 19:04:47;;;;;;;4.55;1.88;;;7.10;99.90;;;;;;5078299;28;20769;-84
2021/12/04 19:07:13;;;;;;;7.35;1.90;;;7.00;99.90;;;;;;5073838;28;20128;-83
2021/12/04 19:09:43;;;;;;;6.57;1.52;;;7.00;99.90;;;;;;5071581;28;20111;-86
2021/12/04 19:12:09;;;;;;;8.63;2.63;;;7.10;99.90;;;;;;5074859;28;20024;-86
2021/12/04 19:14:35;;;;;;;4.78;1.95;;;7.00;99.90;;;;;;5074648;28;20046;-86
2021/12/04 19:17:02;;;;;;;9.63;1.80;;;7.00;99.90;;;;;;5083108;28;20032;-85
2021/12/04 19:19:28;;;;;;;5.90;1.67;;;6.80;99.90;;;;;;5067965;28;20040;-83
2021/12/04 19:21:55;;;;;;;4.80;1.73;;;6.70;99.90;;;;;;5069400;28;20024;-87
2021/12/04 19:24:21;;;;;;;4.38;1.70;;;6.90;99.90;;;;;;5069474;28;20439;-85
2021/12/04 19:26:46;;;;;;;5.07;1.73;;;6.50;99.90;;;;;;5072075;28;20073;-82
2021/12/04 19:29:19;;;;;;;8.40;2.95;;;6.40;99.90;;;;;;5086454;28;20032;-82
2021/12/04 19:31:50;;;;;;;4.22;1.55;;;6.30;99.90;;;;;;5069243;28;20020;-86
2021/12/04 19:48:19;;;;;;;5.25;1.92;;;6.00;99.90;;;;;;5083992;28;20039;-82
2021/12/04 19:50:45;;;;;;;6.78;2.72;;;5.90;99.90;;;;;;5083684;28;20042;-81
2021/12/04 19:56:02;;;;;;;5.30;2.40;;;5.80;99.90;;;;;;5085844;28;20047;-85
2021/12/04 19:58:35;;;;;;;9.65;2.70;;;5.80;99.90;;;;;;5064588;28;20036;-84
2021/12/04 20:01:07;;;;;;;9.02;3.08;;;5.80;99.90;;;;;;5074352;28;20032;-81
2021/12/04 20:03:45;;;;;;;9.95;3.35;;;5.80;99.90;;;;;;5080256;28;20390;-81
2021/12/04 20:06:24;;;;;;;9.27;2.97;;;5.80;99.90;;;;;;5067785;28;20035;-84
2021/12/04 20:09:12;;;;;;;6.70;2.92;;;5.80;99.90;;;;;;5067350;28;20542;-81
2021/12/04 20:14:25;;;;;;;6.53;2.17;;;5.80;99.90;;;;;;5089080;28;20079;-84
2021/12/04 20:16:53;;;;;;;9.52;2.40;;;5.90;99.90;;;;;;5065603;28;20389;-80
2021/12/04 20:19:19;;;;;;;10.05;2.03;;;5.80;99.90;;;;;;5069066;28;20030;-82
2021/12/04 20:21:50;;;;;;;9.65;2.88;;;5.90;99.90;;;;;;5074037;28;20028;-83
2021/12/04 20:24:18;;;;;;;8.60;2.28;;;5.90;99.90;;;;;;5084917;28;20376;-84
2021/12/04 20:26:50;;;;;;;9.70;2.53;;;5.90;99.90;;;;;;5065352;28;20042;-83
2021/12/04 21:06:51;;;;;;;11.05;3.60;;;6.00;99.90;;;;;;5081989;28;20111;-84
2021/12/04 21:50:02;;;;;;;17.17;4.78;;;6.00;99.90;;;;;;5011824;28;20033;-84
2021/12/04 21:52:29;;;;;;;9.02;2.00;;;6.00;99.90;;;;;;5053122;28;20035;-86
2021/12/04 21:54:58;;;;;;;12.35;3.25;;;6.00;99.90;;;;;;5084555;28;20031;-86
2021/12/04 21:57:46;;;;;;;10.38;2.30;;;6.00;99.90;;;;;;5083757;28;20086;-85
2021/12/04 22:11:15;;;;;;;9.50;2.63;;;6.10;99.90;;;;;;5096439;28;20043;-86
2021/12/04 22:13:52;;;;;;;8.60;2.42;;;6.10;99.90;;;;;;5076970;28;20054;-85
2021/12/04 22:59:34;;;;;;;7.28;1.83;;;5.90;99.90;;;;;;5094923;28;20028;-86
2021/12/04 23:02:12;;;;;;;9.50;2.33;;;5.90;99.90;;;;;;5073770;28;20020;-85
2021/12/04 23:12:58;;;;;;;16.88;2.22;;;5.90;99.90;;;;;;5097169;28;20030;-85
2021/12/04 23:15:34;;;;;;;9.68;2.08;;;5.90;99.90;;;;;;5077159;28;20019;-87
2021/12/04 23:34:59;;;;;;;12.13;2.13;;;5.60;99.90;;;;;;5089019;28;20035;-81
2021/12/04 23:46:22;;;;;;;6.90;2.00;;;5.60;99.90;;;;;;5028399;28;20032;-84
